HTZA/ZNZ METAR and TAF weather

Enter ICAO airport designator
Station Type Date Time Source
HTZA METAR 2021/01/27 13:00 UTC NOAA

HTZA 271300Z 09010KT 9999 SCT024 32/22 Q1008 NOSIG


Station Type Date Time Source
HTZA Decoded METAR 2021/01/27 13:00 UTC NOAA

Zanzibar / Kisauni, Tanzania (HTZA) 06-13S 039-13E 15M
Jan 27, 2021 - 08:00 AM EST / 2021.01.27 1300 UTC
Wind: from the E (090 degrees) at 12 MPH (10 KT):0
Visibility: greater than 7 mile(s):0
Sky conditions: partly cloudy
Temperature: 89 F (32 C)
Heat index: 95.0 F (35.0 C):1
Dew Point: 71 F (22 C)
Relative Humidity: 55%
Pressure (altimeter): 29.77 in. Hg (1008 hPa)
ob: HTZA 271300Z 09010KT 9999 SCT024 32/22 Q1008 NOSIG
cycle: 13

Station Type Date Time Source
HTZA TAF 2021/01/27 12:45 UTC NOAA

HTZA 271100Z 2712/2812 30010KT 9999 BKN022
BECMG 2718/2720 02010KT SCT016

Example: see airport list